Terminal Aerodrome Forecast
Issued by NWS

Home | Current Version | Previous Version | Text Only | Print | Product List | Glossary On
Versions: 1 2 3 4 5 6 7 8 9 10 11 12 13 14 15 16 17 18 19 20
000
FTUS42 KCAE 281700
TAFDNL
TAF
KDNL 281720Z 2818/2918 22005KT P6SM SCT008 OVC015
      TEMPO 2818/2820 OVC008
     FM282300 VRB03KT 5SM BR VCSH BKN007 OVC015
     FM290600 VRB03KT 3SM -RA BR OVC004=

USA.gov is the U.S. government's official web portal to all federal, state and local government web resources and services.